Time;durP1;ratioP1;P1;durP2;ratioP2;P2;SDS_P1;SDS_P2;PMS_P1;PMS_P2;Temp;Humidity;BMP_temperature;BMP_pressure;BME280_temperature;BME280_humidity;BME280_pressure;Samples;Min_cycle;Max_cycle;Signal;HPM_P1;HPM_P2
2023/08/04 00:02:04;;;;;;;1.00;0.65;;;;;;;;;;4920242;29;20087;-76
2023/08/04 00:04:30;;;;;;;0.65;0.40;;;;;;;;;;4936421;29;20036;-78
2023/08/04 00:06:55;;;;;;;1.27;0.73;;;;;;;;;;4919488;29;20026;-76
2023/08/04 00:09:21;;;;;;;2.78;0.80;;;;;;;;;;4919053;29;20035;-77
2023/08/04 00:11:46;;;;;;;1.58;0.77;;;;;;;;;;4936528;29;20144;-76
2023/08/04 00:14:13;;;;;;;1.77;0.60;;;;;;;;;;4903893;29;20058;-78
2023/08/04 00:16:39;;;;;;;1.60;0.60;;;;;;;;;;4936586;29;20054;-78
2023/08/04 00:19:04;;;;;;;1.83;0.60;;;;;;;;;;4936425;29;20493;-76
2023/08/04 00:21:30;;;;;;;1.38;0.63;;;;;;;;;;4888124;29;20123;-76
2023/08/04 00:23:58;;;;;;;1.70;0.60;;;;;;;;;;4903296;29;20097;-76
2023/08/04 00:26:24;;;;;;;1.60;0.77;;;;;;;;;;4936611;29;20050;-75
2023/08/04 00:28:50;;;;;;;2.95;0.60;;;;;;;;;;4918463;29;20399;-76
2023/08/04 00:31:15;;;;;;;0.70;0.50;;;;;;;;;;4936056;29;20032;-78
2023/08/04 00:33:41;;;;;;;2.45;0.93;;;;;;;;;;4919655;29;20050;-77
2023/08/04 00:36:06;;;;;;;2.70;0.70;;;;;;;;;;4920479;29;20144;-77
2023/08/04 00:38:32;;;;;;;2.42;1.17;;;;;;;;;;4936468;29;20118;-75
2023/08/04 00:40:57;;;;;;;1.90;0.60;;;;;;;;;;4902248;29;20795;-77
2023/08/04 00:43:23;;;;;;;1.33;0.80;;;;;;;;;;4903495;29;20039;-77
2023/08/04 00:45:48;;;;;;;1.40;0.70;;;;;;;;;;4935381;29;20024;-77
2023/08/04 00:48:14;;;;;;;2.00;0.68;;;;;;;;;;4918117;29;20020;-76
2023/08/04 00:50:42;;;;;;;1.33;0.70;;;;;;;;;;4935259;29;20041;-77
2023/08/04 00:53:09;;;;;;;3.15;0.68;;;;;;;;;;4918122;29;20032;-77
2023/08/04 00:55:35;;;;;;;2.08;0.70;;;;;;;;;;4935469;29;20039;-77
2023/08/04 00:58:00;;;;;;;1.25;0.70;;;;;;;;;;4903188;29;20031;-77
2023/08/04 01:00:26;;;;;;;0.90;0.60;;;;;;;;;;4917505;29;20376;-77
2023/08/04 01:02:51;;;;;;;0.93;0.55;;;;;;;;;;4886770;29;20039;-76
2023/08/04 01:05:17;;;;;;;3.88;0.88;;;;;;;;;;4902427;29;20099;-77
2023/08/04 01:08:03;;;;;;;1.85;0.88;;;;;;;;;;4902259;29;20502;-76
2023/08/04 01:10:39;;;;;;;3.45;0.80;;;;;;;;;;4919357;29;20610;-77
2023/08/04 01:13:06;;;;;;;2.03;0.80;;;;;;;;;;4934841;29;20114;-76
2023/08/04 01:15:31;;;;;;;1.48;1.10;;;;;;;;;;4916958;29;20050;-76
2023/08/04 01:17:58;;;;;;;2.75;0.77;;;;;;;;;;4917969;29;20479;-78
2023/08/04 01:20:24;;;;;;;1.73;0.80;;;;;;;;;;4917546;29;20036;-77
2023/08/04 01:22:50;;;;;;;4.25;1.00;;;;;;;;;;4917836;29;20051;-76
2023/08/04 01:25:16;;;;;;;2.63;0.90;;;;;;;;;;4918096;29;20019;-77
2023/08/04 01:27:42;;;;;;;1.58;0.65;;;;;;;;;;4918040;29;20028;-76
2023/08/04 01:30:14;;;;;;;4.40;0.90;;;;;;;;;;4901270;29;20039;-77
2023/08/04 01:32:40;;;;;;;3.38;1.67;;;;;;;;;;4935067;29;20035;-76
2023/08/04 01:35:06;;;;;;;1.13;0.60;;;;;;;;;;4934736;29;20566;-76
2023/08/04 01:37:32;;;;;;;1.52;0.68;;;;;;;;;;4917652;29;20032;-78
2023/08/04 01:39:58;;;;;;;3.30;0.93;;;;;;;;;;4917900;29;20067;-76
2023/08/04 01:42:23;;;;;;;4.45;0.82;;;;;;;;;;4938272;29;20063;-77
2023/08/04 01:44:49;;;;;;;1.58;0.70;;;;;;;;;;4921261;29;20071;-75
2023/08/04 01:47:14;;;;;;;2.78;0.90;;;;;;;;;;4937367;29;20051;-75
2023/08/04 01:49:40;;;;;;;4.82;1.00;;;;;;;;;;4905711;29;20038;-77
2023/08/04 01:52:05;;;;;;;3.00;0.90;;;;;;;;;;4938200;29;20036;-76
2023/08/04 01:54:31;;;;;;;3.08;0.80;;;;;;;;;;4921277;29;20035;-78
2023/08/04 01:56:56;;;;;;;5.72;0.80;;;;;;;;;;4938168;29;20032;-76
2023/08/04 01:59:22;;;;;;;2.17;1.02;;;;;;;;;;4937984;29;20035;-76
2023/08/04 02:01:47;;;;;;;2.75;0.90;;;;;;;;;;4938006;29;20038;-76
2023/08/04 02:04:13;;;;;;;5.22;1.65;;;;;;;;;;4919847;29;20028;-77
2023/08/04 02:06:39;;;;;;;2.15;0.90;;;;;;;;;;4920972;29;20103;-77
2023/08/04 02:09:04;;;;;;;3.03;0.95;;;;;;;;;;4920889;29;20028;-77
2023/08/04 02:11:31;;;;;;;2.58;0.90;;;;;;;;;;4938137;29;20027;-76
2023/08/04 02:13:57;;;;;;;2.28;1.02;;;;;;;;;;4920909;29;20024;-79
2023/08/04 02:16:23;;;;;;;2.83;0.90;;;;;;;;;;4921451;29;20050;-77
2023/08/04 02:18:48;;;;;;;2.28;1.10;;;;;;;;;;4907764;29;20047;-76
2023/08/04 02:21:14;;;;;;;2.90;0.90;;;;;;;;;;4944933;29;20034;-76
2023/08/04 02:23:39;;;;;;;3.28;1.40;;;;;;;;;;4960241;28;20069;-77
2023/08/04 02:26:05;;;;;;;3.05;1.25;;;;;;;;;;4959654;28;20039;-78
2023/08/04 02:28:32;;;;;;;1.75;1.23;;;;;;;;;;4960955;28;20039;-77
2023/08/04 02:31:00;;;;;;;2.15;1.42;;;;;;;;;;4959497;28;20042;-77
2023/08/04 02:33:26;;;;;;;2.25;1.23;;;;;;;;;;4925523;29;20036;-76
2023/08/04 02:35:58;;;;;;;2.38;1.30;;;;;;;;;;4946693;29;20051;-76
2023/08/04 02:38:24;;;;;;;1.98;1.30;;;;;;;;;;4941597;29;20027;-76
2023/08/04 02:40:49;;;;;;;1.85;1.10;;;;;;;;;;4946390;23;20038;-76
2023/08/04 02:43:15;;;;;;;2.95;1.40;;;;;;;;;;4974180;28;20054;-76
2023/08/04 02:45:46;;;;;;;2.63;1.52;;;;;;;;;;4976273;28;20505;-77
2023/08/04 02:48:12;;;;;;;2.45;1.33;;;;;;;;;;4975037;28;20025;-76
2023/08/04 02:50:38;;;;;;;2.20;1.40;;;;;;;;;;4957810;29;20027;-77
2023/08/04 02:53:03;;;;;;;3.15;1.30;;;;;;;;;;4961482;28;20122;-76
2023/08/04 02:55:29;;;;;;;2.95;1.20;;;;;;;;;;4941640;29;20039;-76
2023/08/04 02:57:55;;;;;;;4.65;1.40;;;;;;;;;;4957644;29;20026;-77
2023/08/04 03:00:20;;;;;;;3.13;1.20;;;;;;;;;;4960506;29;20035;-77
2023/08/04 03:02:46;;;;;;;3.25;1.40;;;;;;;;;;4961791;29;20047;-77
2023/08/04 03:05:12;;;;;;;2.75;1.63;;;;;;;;;;4965043;29;20027;-76
2023/08/04 03:07:37;;;;;;;2.72;1.60;;;;;;;;;;4963132;29;20027;-76
2023/08/04 03:10:03;;;;;;;3.50;1.60;;;;;;;;;;4947462;29;20494;-78
2023/08/04 03:12:28;;;;;;;3.33;1.80;;;;;;;;;;4948423;29;20498;-77
2023/08/04 03:14:54;;;;;;;2.83;1.60;;;;;;;;;;4948555;29;20486;-77
2023/08/04 03:17:20;;;;;;;6.45;1.80;;;;;;;;;;4964563;29;20028;-77
2023/08/04 03:19:45;;;;;;;3.63;1.75;;;;;;;;;;4943716;29;20506;-76
2023/08/04 03:22:11;;;;;;;3.38;2.00;;;;;;;;;;4957875;29;20021;-76
2023/08/04 03:24:36;;;;;;;4.53;2.58;;;;;;;;;;4958983;29;20561;-77
2023/08/04 03:27:02;;;;;;;6.63;2.70;;;;;;;;;;4923417;29;20036;-78
2023/08/04 03:29:28;;;;;;;3.65;2.17;;;;;;;;;;4954921;29;20039;-75
2023/08/04 03:31:53;;;;;;;4.50;2.33;;;;;;;;;;4927043;29;20110;-76
2023/08/04 03:34:19;;;;;;;5.80;2.42;;;;;;;;;;4942033;29;20047;-77
2023/08/04 03:36:45;;;;;;;3.72;2.13;;;;;;;;;;4938554;29;20038;-76
2023/08/04 03:39:10;;;;;;;5.25;3.22;;;;;;;;;;4939478;29;20122;-78
2023/08/04 03:41:36;;;;;;;6.15;2.50;;;;;;;;;;4941441;29;20038;-77
2023/08/04 03:44:01;;;;;;;4.93;2.22;;;;;;;;;;4941471;29;20042;-77
2023/08/04 03:46:27;;;;;;;3.75;2.20;;;;;;;;;;4956327;29;20063;-79
2023/08/04 03:48:53;;;;;;;5.20;2.45;;;;;;;;;;4938551;29;20403;-77
2023/08/04 03:51:19;;;;;;;7.90;2.47;;;;;;;;;;4952658;29;20054;-77
2023/08/04 03:53:45;;;;;;;3.28;2.10;;;;;;;;;;4936020;29;20132;-75
2023/08/04 03:56:11;;;;;;;5.78;2.20;;;;;;;;;;4920583;29;20063;-76
2023/08/04 03:58:37;;;;;;;4.45;2.10;;;;;;;;;;4942393;29;20383;-78
2023/08/04 04:01:06;;;;;;;5.45;2.20;;;;;;;;;;4957145;29;20027;-78
2023/08/04 04:03:31;;;;;;;4.50;2.08;;;;;;;;;;4954771;28;20039;-76
2023/08/04 04:05:57;;;;;;;4.68;2.78;;;;;;;;;;4937998;29;20035;-77
2023/08/04 04:08:22;;;;;;;6.13;2.47;;;;;;;;;;4922109;29;20398;-76
2023/08/04 04:10:48;;;;;;;5.15;2.53;;;;;;;;;;4954964;28;20023;-76
2023/08/04 04:13:14;;;;;;;7.70;2.70;;;;;;;;;;4953607;29;20035;-75
2023/08/04 04:15:39;;;;;;;7.03;2.30;;;;;;;;;;4952925;28;20031;-75
2023/08/04 04:18:05;;;;;;;4.47;2.10;;;;;;;;;;4954048;29;20058;-77
2023/08/04 04:20:30;;;;;;;8.52;2.25;;;;;;;;;;4954603;29;20034;-75
2023/08/04 04:22:56;;;;;;;9.00;1.98;;;;;;;;;;4957599;29;20395;-78
2023/08/04 04:25:22;;;;;;;4.40;1.85;;;;;;;;;;4941514;29;20081;-77
2023/08/04 04:27:47;;;;;;;4.75;1.98;;;;;;;;;;4961877;29;20031;-78
2023/08/04 04:30:13;;;;;;;5.00;1.70;;;;;;;;;;4965615;29;20487;-77
2023/08/04 04:32:39;;;;;;;5.63;1.65;;;;;;;;;;4949762;29;20039;-78
2023/08/04 04:35:04;;;;;;;8.70;2.10;;;;;;;;;;4966058;28;20035;-77
2023/08/04 04:37:30;;;;;;;4.28;2.10;;;;;;;;;;4964499;29;20073;-77
2023/08/04 04:39:55;;;;;;;5.57;1.98;;;;;;;;;;4964755;29;20058;-77
2023/08/04 04:42:21;;;;;;;6.78;1.92;;;;;;;;;;4964827;29;20035;-77
2023/08/04 04:44:46;;;;;;;4.45;1.90;;;;;;;;;;4961388;29;20043;-76
2023/08/04 04:47:12;;;;;;;7.28;2.50;;;;;;;;;;4944996;29;20423;-76
2023/08/04 04:49:37;;;;;;;4.72;2.30;;;;;;;;;;4937903;29;20035;-76
2023/08/04 04:52:04;;;;;;;3.45;1.75;;;;;;;;;;4941726;29;20031;-77
2023/08/04 04:54:30;;;;;;;4.18;2.25;;;;;;;;;;4910161;29;20039;-76
2023/08/04 04:56:56;;;;;;;6.63;2.15;;;;;;;;;;4943069;29;20039;-79
2023/08/04 04:59:21;;;;;;;5.20;2.20;;;;;;;;;;4945873;29;20039;-77
2023/08/04 05:01:50;;;;;;;4.38;2.20;;;;;;;;;;4911574;29;20104;-76
2023/08/04 05:04:18;;;;;;;4.13;2.25;;;;;;;;;;4935795;29;20023;-75
2023/08/04 05:06:44;;;;;;;6.07;2.40;;;;;;;;;;4937263;29;20031;-76
2023/08/04 05:09:10;;;;;;;4.90;2.53;;;;;;;;;;4920097;29;20067;-77
2023/08/04 05:11:35;;;;;;;6.22;2.72;;;;;;;;;;4935177;29;20044;-76
2023/08/04 05:14:01;;;;;;;5.10;2.53;;;;;;;;;;4918475;29;20368;-76
2023/08/04 05:16:27;;;;;;;6.47;2.85;;;;;;;;;;4918309;29;20066;-75
2023/08/04 05:18:52;;;;;;;7.20;3.00;;;;;;;;;;4919063;29;20521;-76
2023/08/04 05:21:18;;;;;;;8.75;3.20;;;;;;;;;;4945992;29;20569;-76
2023/08/04 05:23:43;;;;;;;3.88;2.47;;;;;;;;;;4953722;29;20606;-75
2023/08/04 05:26:09;;;;;;;7.25;3.20;;;;;;;;;;4953618;29;20518;-75
2023/08/04 05:28:34;;;;;;;6.85;2.97;;;;;;;;;;4956273;28;20495;-76
2023/08/04 05:31:01;;;;;;;6.55;3.33;;;;;;;;;;4954150;29;20042;-76
2023/08/04 05:33:27;;;;;;;6.65;3.10;;;;;;;;;;4954424;29;20035;-76
2023/08/04 05:35:53;;;;;;;4.78;3.10;;;;;;;;;;4953539;29;20183;-76
2023/08/04 05:38:19;;;;;;;7.68;3.20;;;;;;;;;;4953684;28;20066;-76
2023/08/04 05:40:46;;;;;;;4.18;2.92;;;;;;;;;;4937087;29;20039;-78
2023/08/04 05:43:12;;;;;;;7.20;3.35;;;;;;;;;;4954279;28;20019;-77
2023/08/04 05:45:39;;;;;;;6.55;3.28;;;;;;;;;;4955588;29;20103;-76
2023/08/04 05:48:05;;;;;;;6.82;3.05;;;;;;;;;;4955579;29;20288;-76
2023/08/04 05:50:31;;;;;;;9.45;3.15;;;;;;;;;;4954150;29;20112;-76
2023/08/04 05:52:57;;;;;;;5.28;2.80;;;;;;;;;;4953836;28;20054;-75
2023/08/04 05:55:23;;;;;;;5.05;2.40;;;;;;;;;;4938001;29;20086;-76
2023/08/04 05:57:52;;;;;;;7.25;2.65;;;;;;;;;;4939800;29;20140;-76
2023/08/04 06:00:17;;;;;;;;;;;;;;;;;;4955137;28;20031;-76
2023/08/04 06:02:44;;;;;;;5.93;2.40;;;;;;;;;;4953375;29;19910;-74
2023/08/04 06:05:11;;;;;;;4.38;2.63;;;;;;;;;;4922062;29;20031;-76
2023/08/04 06:07:37;;;;;;;4.00;2.13;;;;;;;;;;4921210;29;20027;-77
2023/08/04 06:10:03;;;;;;;4.63;1.90;;;;;;;;;;4952904;29;20130;-76
2023/08/04 06:12:28;;;;;;;5.60;2.38;;;;;;;;;;4936022;29;20499;-76
2023/08/04 06:14:55;;;;;;;6.43;2.05;;;;;;;;;;4953264;28;20035;-76
2023/08/04 06:17:20;;;;;;;6.85;2.75;;;;;;;;;;4953016;29;20501;-77
2023/08/04 06:19:46;;;;;;;4.82;2.13;;;;;;;;;;4952254;29;20031;-76
2023/08/04 06:22:13;;;;;;;6.82;2.35;;;;;;;;;;4920142;29;20034;-77
2023/08/04 06:24:39;;;;;;;6.75;2.30;;;;;;;;;;4952053;28;20035;-77
2023/08/04 06:27:05;;;;;;;5.40;2.20;;;;;;;;;;4951779;28;20041;-77
2023/08/04 06:29:31;;;;;;;6.60;2.40;;;;;;;;;;4957020;28;20101;-77
2023/08/04 06:31:57;;;;;;;6.57;2.60;;;;;;;;;;4955712;29;20447;-76
2023/08/04 06:34:22;;;;;;;5.63;2.40;;;;;;;;;;4955593;29;20099;-76
2023/08/04 06:36:48;;;;;;;6.47;2.50;;;;;;;;;;4956443;29;20035;-76
2023/08/04 06:39:14;;;;;;;5.13;2.45;;;;;;;;;;4945182;29;20035;-76
2023/08/04 06:41:41;;;;;;;5.90;2.42;;;;;;;;;;4962395;29;20033;-76
2023/08/04 06:44:11;;;;;;;5.85;2.47;;;;;;;;;;4943741;29;20035;-75
2023/08/04 06:46:36;;;;;;;5.45;3.13;;;;;;;;;;4944174;29;20114;-77
2023/08/04 06:49:02;;;;;;;5.72;2.78;;;;;;;;;;4943601;29;20106;-76
2023/08/04 06:51:28;;;;;;;7.30;3.28;;;;;;;;;;4927844;29;20031;-76
2023/08/04 06:53:54;;;;;;;8.77;3.50;;;;;;;;;;4926718;29;20423;-76
2023/08/04 06:56:19;;;;;;;6.78;2.97;;;;;;;;;;4942516;29;20063;-75
2023/08/04 06:58:45;;;;;;;9.13;3.58;;;;;;;;;;4942275;29;20456;-76
2023/08/04 07:01:11;;;;;;;8.52;3.45;;;;;;;;;;4947317;29;20035;-75
2023/08/04 07:03:37;;;;;;;7.95;3.80;;;;;;;;;;4940005;29;20035;-75
2023/08/04 07:06:02;;;;;;;7.70;3.47;;;;;;;;;;4939199;29;20023;-75
2023/08/04 07:08:28;;;;;;;8.85;3.65;;;;;;;;;;4936472;29;20403;-75
2023/08/04 07:10:54;;;;;;;7.20;3.05;;;;;;;;;;4940179;29;20043;-76
2023/08/04 07:13:19;;;;;;;7.05;3.85;;;;;;;;;;4942013;29;20023;-75
2023/08/04 07:15:57;;;;;;;9.57;3.45;;;;;;;;;;4938336;29;20376;-75
2023/08/04 07:18:23;;;;;;;9.65;2.80;;;;;;;;;;4944475;29;20041;-76
2023/08/04 07:20:49;;;;;;;5.05;2.50;;;;;;;;;;4940585;29;20035;-76
2023/08/04 07:23:15;;;;;;;8.80;2.80;;;;;;;;;;4956301;29;20032;-76
2023/08/04 07:25:41;;;;;;;6.80;2.80;;;;;;;;;;4957052;29;20027;-77
2023/08/04 07:28:06;;;;;;;5.40;2.60;;;;;;;;;;4957419;29;20031;-76
2023/08/04 07:30:32;;;;;;;5.85;2.70;;;;;;;;;;4957930;28;20059;-76
2023/08/04 07:32:58;;;;;;;6.10;2.30;;;;;;;;;;4954651;29;20537;-76
2023/08/04 07:35:24;;;;;;;10.15;2.50;;;;;;;;;;4954902;29;20503;-76
2023/08/04 07:37:50;;;;;;;8.82;2.78;;;;;;;;;;4954758;28;20067;-78
2023/08/04 07:40:15;;;;;;;9.20;2.97;;;;;;;;;;4956825;29;20376;-76
2023/08/04 07:42:41;;;;;;;6.38;2.90;;;;;;;;;;4940186;29;20502;-79
2023/08/04 07:45:07;;;;;;;6.70;3.13;;;;;;;;;;4924238;29;20037;-77
2023/08/04 07:47:33;;;;;;;8.43;3.30;;;;;;;;;;4940781;29;20106;-77
2023/08/04 07:49:59;;;;;;;7.88;3.05;;;;;;;;;;4939944;29;20055;-76
2023/08/04 07:52:24;;;;;;;9.13;3.78;;;;;;;;;;4924539;29;20043;-77
2023/08/04 07:54:50;;;;;;;5.20;2.50;;;;;;;;;;4954709;29;20454;-77
2023/08/04 07:57:15;;;;;;;8.65;3.03;;;;;;;;;;4955143;28;20450;-77
2023/08/04 07:59:41;;;;;;;8.85;3.30;;;;;;;;;;4953869;29;20027;-77
2023/08/04 08:02:07;;;;;;;9.38;4.07;;;;;;;;;;4969666;28;20118;-77
2023/08/04 08:04:32;;;;;;;9.68;4.00;;;;;;;;;;4952970;29;20035;-77
2023/08/04 08:06:58;;;;;;;7.60;3.65;;;;;;;;;;4969849;28;20398;-78
2023/08/04 08:09:24;;;;;;;12.68;5.15;;;;;;;;;;4953593;29;20031;-78
2023/08/04 08:11:50;;;;;;;9.90;4.00;;;;;;;;;;4937724;29;20398;-78
2023/08/04 08:14:16;;;;;;;8.57;4.10;;;;;;;;;;4954665;28;20066;-77
2023/08/04 08:16:42;;;;;;;10.50;4.50;;;;;;;;;;4953729;29;20032;-78
2023/08/04 08:19:10;;;;;;;7.88;4.25;;;;;;;;;;4954680;28;20053;-76
2023/08/04 08:21:36;;;;;;;13.82;4.45;;;;;;;;;;4952678;29;20035;-76
2023/08/04 08:24:02;;;;;;;11.23;4.30;;;;;;;;;;4953522;29;20062;-76
2023/08/04 08:26:27;;;;;;;12.60;4.88;;;;;;;;;;4937312;29;20057;-77
2023/08/04 08:28:53;;;;;;;12.07;4.88;;;;;;;;;;4954610;29;20031;-76
2023/08/04 08:31:18;;;;;;;9.10;4.53;;;;;;;;;;4953603;29;20042;-76
2023/08/04 08:33:44;;;;;;;9.55;4.07;;;;;;;;;;4921749;29;20035;-76
2023/08/04 08:36:10;;;;;;;10.35;3.92;;;;;;;;;;4953070;29;20380;-75
2023/08/04 08:38:36;;;;;;;9.73;4.40;;;;;;;;;;4953649;28;20027;-77
2023/08/04 08:41:02;;;;;;;11.10;3.50;;;;;;;;;;4957078;23;20051;-77
2023/08/04 08:43:28;;;;;;;6.45;3.67;;;;;;;;;;4917037;29;20028;-77
2023/08/04 08:45:55;;;;;;;11.98;3.45;;;;;;;;;;4915643;29;20483;-79
2023/08/04 08:48:20;;;;;;;7.35;3.40;;;;;;;;;;4916743;29;20169;-76
2023/08/04 08:50:48;;;;;;;8.02;2.88;;;;;;;;;;4915814;29;20091;-77
2023/08/04 08:53:15;;;;;;;6.50;2.75;;;;;;;;;;4915381;29;20036;-77
2023/08/04 08:55:41;;;;;;;5.55;2.42;;;;;;;;;;4916951;29;20032;-77
2023/08/04 08:58:07;;;;;;;6.15;2.40;;;;;;;;;;4916753;29;20419;-77
2023/08/04 09:00:33;;;;;;;5.82;1.83;;;;;;;;;;4916160;29;20035;-76
2023/08/04 09:02:59;;;;;;;6.53;2.17;;;;;;;;;;4915119;29;20488;-76
2023/08/04 09:05:25;;;;;;;8.55;2.13;;;;;;;;;;4899219;29;20062;-76
2023/08/04 09:07:51;;;;;;;6.90;1.95;;;;;;;;;;4915235;29;20024;-77
2023/08/04 09:10:16;;;;;;;9.18;2.10;;;;;;;;;;4913995;29;20044;-76
2023/08/04 09:12:44;;;;;;;6.00;1.70;;;;;;;;;;4914983;29;20071;-77
2023/08/04 09:15:10;;;;;;;8.23;1.73;;;;;;;;;;4915911;29;20036;-77
2023/08/04 09:17:36;;;;;;;7.95;2.65;;;;;;;;;;4916147;29;20337;-76
2023/08/04 09:20:03;;;;;;;7.50;2.15;;;;;;;;;;4899104;29;20039;-77
2023/08/04 09:22:31;;;;;;;5.05;1.40;;;;;;;;;;4915057;29;20039;-76
2023/08/04 09:25:00;;;;;;;4.55;2.05;;;;;;;;;;4915850;29;20040;-77
2023/08/04 09:27:29;;;;;;;6.95;2.20;;;;;;;;;;4898408;29;20033;-77
2023/08/04 09:29:56;;;;;;;7.05;1.90;;;;;;;;;;4914805;29;20036;-77
2023/08/04 09:32:21;;;;;;;7.07;1.73;;;;;;;;;;4914715;29;20115;-77
2023/08/04 09:34:57;;;;;;;5.72;1.58;;;;;;;;;;4914583;29;20064;-76
2023/08/04 09:37:23;;;;;;;6.38;1.50;;;;;;;;;;4915811;29;20064;-77
2023/08/04 09:39:48;;;;;;;5.10;1.50;;;;;;;;;;4915632;29;20420;-77
2023/08/04 09:42:15;;;;;;;5.28;1.70;;;;;;;;;;4914116;29;20043;-76
2023/08/04 09:44:40;;;;;;;5.13;1.95;;;;;;;;;;4914903;29;20492;-78
2023/08/04 09:47:06;;;;;;;5.57;2.25;;;;;;;;;;4915576;29;20039;-77
2023/08/04 09:49:31;;;;;;;8.20;1.75;;;;;;;;;;4915858;29;20032;-76
2023/08/04 09:51:57;;;;;;;10.45;1.67;;;;;;;;;;4915903;29;20040;-77
2023/08/04 09:54:26;;;;;;;5.28;1.90;;;;;;;;;;4914443;29;20349;-77
2023/08/04 09:56:51;;;;;;;6.60;1.95;;;;;;;;;;4915691;29;20047;-78
2023/08/04 09:59:18;;;;;;;5.85;1.60;;;;;;;;;;4916301;29;20410;-78
2023/08/04 10:01:43;;;;;;;5.57;1.77;;;;;;;;;;4899401;29;20372;-77
2023/08/04 10:04:09;;;;;;;3.83;1.50;;;;;;;;;;4918333;29;20046;-78
2023/08/04 10:06:37;;;;;;;5.47;1.88;;;;;;;;;;4919647;29;20043;-77
2023/08/04 10:09:03;;;;;;;4.28;1.80;;;;;;;;;;4923005;29;20035;-78
2023/08/04 10:11:29;;;;;;;7.10;1.67;;;;;;;;;;4934504;29;20091;-77
2023/08/04 10:13:55;;;;;;;7.35;1.80;;;;;;;;;;4939410;29;20043;-77
2023/08/04 10:16:22;;;;;;;7.78;1.80;;;;;;;;;;4939671;29;20027;-78
2023/08/04 10:18:49;;;;;;;3.55;1.60;;;;;;;;;;4940253;29;20034;-78
2023/08/04 10:21:29;;;;;;;10.23;2.22;;;;;;;;;;4924248;29;20088;-78
2023/08/04 10:23:57;;;;;;;4.57;1.65;;;;;;;;;;4936140;29;20040;-76
2023/08/04 10:26:22;;;;;;;4.30;1.73;;;;;;;;;;4899072;29;20564;-78
2023/08/04 10:29:01;;;;;;;4.85;1.58;;;;;;;;;;4925326;29;20036;-77
2023/08/04 10:31:41;;;;;;;5.57;1.60;;;;;;;;;;4922100;29;20028;-77
2023/08/04 10:34:29;;;;;;;10.23;1.77;;;;;;;;;;4902435;29;20036;-77
2023/08/04 10:36:55;;;;;;;3.00;1.43;;;;;;;;;;4919297;29;20068;-77
2023/08/04 10:39:27;;;;;;;5.50;1.63;;;;;;;;;;4918082;29;20064;-77
2023/08/04 10:41:53;;;;;;;6.65;1.73;;;;;;;;;;4918388;29;20416;-77
2023/08/04 10:44:29;;;;;;;4.20;1.33;;;;;;;;;;4918429;29;20484;-77
2023/08/04 10:47:03;;;;;;;5.03;1.52;;;;;;;;;;4918124;29;20111;-76
2023/08/04 10:49:30;;;;;;;3.78;1.30;;;;;;;;;;4918164;29;20039;-77
2023/08/04 10:51:57;;;;;;;8.00;1.67;;;;;;;;;;4918086;29;20024;-77
2023/08/04 10:54:22;;;;;;;4.68;1.50;;;;;;;;;;4917476;29;20042;-76
2023/08/04 10:56:48;;;;;;;8.85;1.90;;;;;;;;;;4918870;29;20025;-78
2023/08/04 10:59:37;;;;;;;4.18;1.45;;;;;;;;;;4918283;29;20040;-76
2023/08/04 11:02:02;;;;;;;4.18;1.42;;;;;;;;;;4918469;29;20050;-77
2023/08/04 11:04:28;;;;;;;3.65;1.20;;;;;;;;;;4917026;29;20044;-78
2023/08/04 11:06:56;;;;;;;3.58;1.30;;;;;;;;;;4918302;29;20035;-77
2023/08/04 11:09:22;;;;;;;;;;;;;;;;;;4918084;29;20039;-76
2023/08/04 11:11:47;;;;;;;4.30;1.40;;;;;;;;;;4917325;29;20367;-76
2023/08/04 11:14:13;;;;;;;4.68;1.77;;;;;;;;;;4900479;29;20036;-77
2023/08/04 11:16:45;;;;;;;6.30;1.40;;;;;;;;;;4918026;29;20396;-76
2023/08/04 11:19:10;;;;;;;2.85;1.25;;;;;;;;;;4918270;29;20029;-76
2023/08/04 11:21:36;;;;;;;4.82;1.45;;;;;;;;;;4917876;29;20035;-78
2023/08/04 11:24:01;;;;;;;5.97;1.45;;;;;;;;;;4916934;29;20039;-76
2023/08/04 11:26:27;;;;;;;7.10;1.00;;;;;;;;;;4918015;29;20464;-78
2023/08/04 11:28:59;;;;;;;7.53;1.70;;;;;;;;;;4916957;29;20064;-78
2023/08/04 11:31:26;;;;;;;5.15;1.67;;;;;;;;;;4917363;29;20036;-76
2023/08/04 11:33:52;;;;;;;4.53;1.20;;;;;;;;;;4917945;29;20038;-77
2023/08/04 11:36:17;;;;;;;6.03;1.40;;;;;;;;;;4917706;29;20076;-77
2023/08/04 11:38:43;;;;;;;5.47;1.30;;;;;;;;;;4900895;29;20039;-78
2023/08/04 11:41:10;;;;;;;4.63;1.58;;;;;;;;;;4896877;29;20032;-77
2023/08/04 11:43:35;;;;;;;4.38;1.48;;;;;;;;;;4882171;29;20061;-78
2023/08/04 11:46:06;;;;;;;5.32;1.25;;;;;;;;;;4898546;29;20024;-76
2023/08/04 11:48:38;;;;;;;4.30;1.50;;;;;;;;;;4898750;29;20108;-77
2023/08/04 11:51:07;;;;;;;4.93;1.48;;;;;;;;;;4898763;29;20025;-76
2023/08/04 11:53:33;;;;;;;4.13;1.35;;;;;;;;;;4898392;29;20032;-77
2023/08/04 11:56:00;;;;;;;4.43;1.38;;;;;;;;;;4897180;29;20044;-78
2023/08/04 11:58:32;;;;;;;6.35;1.27;;;;;;;;;;4901580;29;20112;-77
2023/08/04 12:00:58;;;;;;;11.13;2.10;;;;;;;;;;4917282;29;20067;-78
2023/08/04 12:03:23;;;;;;;3.40;1.40;;;;;;;;;;4916844;29;20067;-78
2023/08/04 12:05:49;;;;;;;3.58;1.20;;;;;;;;;;4917227;29;20495;-78
2023/08/04 12:08:15;;;;;;;4.20;1.40;;;;;;;;;;4900214;29;20457;-76
2023/08/04 12:10:41;;;;;;;4.68;1.60;;;;;;;;;;4916783;29;20607;-77
2023/08/04 12:13:08;;;;;;;3.90;1.50;;;;;;;;;;4915385;29;20028;-78
2023/08/04 12:15:52;;;;;;;4.47;1.42;;;;;;;;;;4914934;29;20040;-78
2023/08/04 12:18:43;;;;;;;9.38;1.55;;;;;;;;;;4915462;29;20032;-77
2023/08/04 12:21:15;;;;;;;4.15;1.45;;;;;;;;;;4915328;29;20460;-77
2023/08/04 12:23:51;;;;;;;3.67;1.30;;;;;;;;;;4915023;29;20452;-77
2023/08/04 12:26:16;;;;;;;6.60;1.30;;;;;;;;;;4917031;29;20500;-79
2023/08/04 12:28:42;;;;;;;4.57;1.20;;;;;;;;;;4920475;29;20043;-77
2023/08/04 12:31:08;;;;;;;4.88;1.50;;;;;;;;;;4922559;29;20410;-76
2023/08/04 12:33:35;;;;;;;4.97;1.50;;;;;;;;;;4918578;29;20028;-77
2023/08/04 12:36:00;;;;;;;2.55;1.17;;;;;;;;;;4919958;29;20392;-76
2023/08/04 12:38:26;;;;;;;6.10;1.30;;;;;;;;;;4919750;29;20061;-76
2023/08/04 12:40:51;;;;;;;4.47;1.75;;;;;;;;;;4920222;29;20032;-79
2023/08/04 12:43:17;;;;;;;5.95;1.70;;;;;;;;;;4921311;29;20036;-76
2023/08/04 12:45:43;;;;;;;7.95;1.15;;;;;;;;;;4922667;29;20043;-78
2023/08/04 12:48:08;;;;;;;4.15;1.25;;;;;;;;;;4924328;29;20116;-77
2023/08/04 12:50:34;;;;;;;4.25;1.27;;;;;;;;;;4931008;29;20544;-77
2023/08/04 12:52:59;;;;;;;6.10;1.48;;;;;;;;;;4934249;29;20016;-77
2023/08/04 12:55:34;;;;;;;6.65;1.50;;;;;;;;;;4932778;29;20092;-76
2023/08/04 12:57:59;;;;;;;4.53;1.20;;;;;;;;;;4915495;29;20040;-78
2023/08/04 13:00:50;;;;;;;5.93;1.40;;;;;;;;;;4921464;29;20060;-78
2023/08/04 13:03:27;;;;;;;3.55;1.30;;;;;;;;;;4918508;29;20027;-78
2023/08/04 13:05:53;;;;;;;11.25;1.60;;;;;;;;;;4916556;29;20029;-78
2023/08/04 13:08:21;;;;;;;6.07;1.15;;;;;;;;;;4916273;29;20032;-77
2023/08/04 13:10:52;;;;;;;2.67;1.10;;;;;;;;;;4916703;29;20483;-77
2023/08/04 13:13:23;;;;;;;2.72;1.10;;;;;;;;;;4899701;29;20083;-78
2023/08/04 13:16:44;;;;;;;3.90;1.15;;;;;;;;;;4899504;29;20519;-77
2023/08/04 13:19:35;;;;;;;4.60;1.48;;;;;;;;;;4914945;29;20108;-78
2023/08/04 13:22:06;;;;;;;3.25;1.27;;;;;;;;;;4914788;29;20016;-78
2023/08/04 13:24:32;;;;;;;5.22;1.13;;;;;;;;;;4915812;29;20499;-78
2023/08/04 13:26:58;;;;;;;2.63;1.20;;;;;;;;;;4914636;29;20032;-76
2023/08/04 13:29:29;;;;;;;7.63;1.30;;;;;;;;;;4915190;29;20043;-78
2023/08/04 13:31:55;;;;;;;2.95;0.90;;;;;;;;;;4916056;29;20043;-79
2023/08/04 13:34:21;;;;;;;3.50;1.20;;;;;;;;;;4898888;29;20036;-76
2023/08/04 13:36:56;;;;;;;4.43;1.17;;;;;;;;;;4917579;29;20451;-79
2023/08/04 13:39:24;;;;;;;6.05;1.83;;;;;;;;;;4901916;29;20530;-76
2023/08/04 13:42:05;;;;;;;2.70;1.05;;;;;;;;;;4919422;29;20058;-76
2023/08/04 13:44:32;;;;;;;3.70;1.50;;;;;;;;;;4919893;29;20036;-77
2023/08/04 13:47:04;;;;;;;4.10;1.00;;;;;;;;;;4919644;29;20035;-76
2023/08/04 13:49:31;;;;;;;2.45;1.00;;;;;;;;;;4919619;29;20039;-77
2023/08/04 13:51:56;;;;;;;6.70;1.00;;;;;;;;;;4919316;29;20028;-76
2023/08/04 13:54:50;;;;;;;4.32;1.25;;;;;;;;;;4917918;29;20040;-78
2023/08/04 13:57:18;;;;;;;6.43;1.38;;;;;;;;;;4919328;29;20501;-77
2023/08/04 13:59:44;;;;;;;4.40;1.25;;;;;;;;;;4919326;29;20032;-78
2023/08/04 14:02:12;;;;;;;3.40;1.20;;;;;;;;;;4918915;29;20439;-77
2023/08/04 14:04:41;;;;;;;5.78;1.33;;;;;;;;;;4919449;29;20067;-77
2023/08/04 14:07:06;;;;;;;2.88;1.10;;;;;;;;;;4918056;29;20060;-79
2023/08/04 14:09:48;;;;;;;4.50;1.58;;;;;;;;;;4917171;29;20032;-77
2023/08/04 14:12:47;;;;;;;4.13;1.00;;;;;;;;;;4917382;29;20032;-78
2023/08/04 14:15:12;;;;;;;5.47;2.28;;;;;;;;;;4886476;29;20036;-77
2023/08/04 14:17:41;;;;;;;4.00;1.70;;;;;;;;;;4902228;29;20372;-77
2023/08/04 14:20:14;;;;;;;5.30;1.20;;;;;;;;;;4902269;29;20039;-77
2023/08/04 14:22:40;;;;;;;3.63;1.25;;;;;;;;;;4917737;29;20055;-77
2023/08/04 14:25:06;;;;;;;4.90;1.23;;;;;;;;;;4917685;29;20487;-78
2023/08/04 14:27:31;;;;;;;4.75;1.58;;;;;;;;;;4916684;29;20036;-77
2023/08/04 14:29:57;;;;;;;3.25;1.20;;;;;;;;;;4919488;29;20476;-76
2023/08/04 14:32:22;;;;;;;5.10;1.50;;;;;;;;;;4918764;29;20047;-77
2023/08/04 14:34:48;;;;;;;3.30;1.02;;;;;;;;;;4917574;29;20039;-77
2023/08/04 14:37:14;;;;;;;4.95;1.50;;;;;;;;;;4918887;29;20114;-79
2023/08/04 14:39:39;;;;;;;3.17;1.15;;;;;;;;;;4918667;29;20040;-77
2023/08/04 14:42:05;;;;;;;3.20;1.00;;;;;;;;;;4965119;23;20043;-75
2023/08/04 14:44:31;;;;;;;2.50;1.05;;;;;;;;;;4977120;28;20022;-77